الصفحة الرئيسية
METAR-TAF:

METAR-TAF

مطار :

كاولاك, السنغال

دائرة عرض: 14-08N, خط طول: 016-04W, ارتفاع: 6 متر

مراقبة الطقس الحالي

تاريخ ووقت الإصدار 1ساعة و 6 دقيقة قبل الساعة 18:00UTC
ريح 10 عقدة من الشمال الشرقي
درجة الحرارة 35°درجة مئوية
الرطوبة 9%
ضغط 1008 hPa
الرؤية: 4500 متر
غبار,

METAR: GOOK 211800Z 04010KT 4500 DU NSC 35/M03 Q1008

زمن: 19:06 (19:06 UTC)


TAF: مفقودة

أرصاد الطقس والتوقعات من أكثر من 4000 مطار (تقارير الطقس للمطار METAR والتنبؤ بالطقس بالمطارTAF).

المحطات المتاحة هي النقط الصفراء والحمراء على الخريطة.

حرك المؤشر فوق النقطة لمعرفة اسم المحطة.

ثم انقر لمعرفة أرصاد وتوقعات الطقس.

لتغيير الخارطة: اضغط على الأزرار الخضراء مع رمز الصليب الأسود للتكبير. على الزر الأخضر مع شرطة للتصغير، أو على الأسهم الخضراء للخرائط المجاورة.


METAR-TAF: